createdAt,value
2018-10-05T00:00:26.809Z,99.57
2018-10-05T00:02:55.853Z,99.82
2018-10-05T00:08:00.580Z,100.00
2018-10-05T00:10:30.549Z,100.00
2018-10-05T00:15:35.380Z,97.71
2018-10-05T00:18:04.423Z,97.64
2018-10-05T00:20:33.488Z,99.13
2018-10-05T00:23:02.512Z,99.84
2018-10-05T00:25:31.558Z,97.94
2018-10-05T00:28:06.186Z,99.41
2018-10-05T00:30:35.229Z,97.76
2018-10-05T00:35:40.993Z,97.07
2018-10-05T00:38:10.261Z,97.63
2018-10-05T00:40:39.220Z,98.38
2018-10-05T00:43:08.261Z,99.18
2018-10-05T00:48:13.001Z,100.00
2018-10-05T00:50:42.965Z,100.00
2018-10-05T00:55:47.755Z,100.00
2018-10-05T00:58:16.828Z,100.00
2018-10-05T01:00:45.873Z,100.00
2018-10-05T01:05:51.585Z,100.00
2018-10-05T01:10:56.395Z,100.00
2018-10-05T01:16:01.154Z,100.00
2018-10-05T01:18:34.702Z,100.00
2018-10-05T01:21:03.771Z,100.00
2018-10-05T01:23:33.793Z,100.00
2018-10-05T01:26:02.855Z,100.00
2018-10-05T01:28:35.922Z,100.00
2018-10-05T01:31:05.913Z,100.00
2018-10-05T01:36:11.685Z,100.00
2018-10-05T01:41:16.372Z,100.00
2018-10-05T01:43:45.429Z,100.00
2018-10-05T01:46:14.488Z,100.00
2018-10-05T01:48:43.638Z,100.00
2018-10-05T01:51:13.698Z,100.00
2018-10-05T01:53:42.765Z,100.00
2018-10-05T01:56:11.917Z,100.00
2018-10-05T02:01:16.657Z,100.00
2018-10-05T02:03:45.704Z,100.00
2018-10-05T02:08:50.503Z,100.00
2018-10-05T02:14:08.721Z,100.00
2018-10-05T02:16:37.777Z,100.00
2018-10-05T02:19:07.845Z,100.00
2018-10-05T02:21:36.926Z,100.00
2018-10-05T02:26:41.745Z,100.00
2018-10-05T02:29:10.781Z,100.00
2018-10-05T02:31:39.902Z,100.00
2018-10-05T02:34:08.924Z,100.00
2018-10-05T02:36:37.987Z,100.00
2018-10-05T02:39:09.030Z,100.00
2018-10-05T02:41:38.124Z,100.00
2018-10-05T02:44:07.125Z,99.90
2018-10-05T02:46:38.178Z,100.00
2018-10-05T02:49:08.187Z,100.00
2018-10-05T02:51:37.240Z,100.00
2018-10-05T02:59:17.733Z,100.00
2018-10-05T03:02:09.265Z,100.00
2018-10-05T03:04:39.303Z,100.00
2018-10-05T03:07:08.425Z,100.00
2018-10-05T03:09:37.535Z,100.00
2018-10-05T03:12:06.591Z,100.00
2018-10-05T03:14:35.641Z,100.00
2018-10-05T03:17:04.693Z,100.00
2018-10-05T03:19:34.773Z,100.00
2018-10-05T03:22:03.797Z,100.00
2018-10-05T03:27:10.540Z,100.00
2018-10-05T03:29:39.656Z,100.00
2018-10-05T03:32:08.716Z,100.00
2018-10-05T03:34:37.757Z,100.00
2018-10-05T03:37:06.812Z,100.00
2018-10-05T03:39:35.879Z,100.00
2018-10-05T03:44:40.625Z,100.00
2018-10-05T03:47:09.678Z,100.00
2018-10-05T03:49:38.737Z,100.00
2018-10-05T03:52:08.682Z,100.00
2018-10-05T03:54:37.731Z,100.00
2018-10-05T03:57:06.786Z,100.00
2018-10-05T04:02:13.576Z,100.00
2018-10-05T04:04:43.653Z,100.00
2018-10-05T04:07:12.701Z,100.00
2018-10-05T04:12:17.493Z,100.00
2018-10-05T04:17:23.294Z,100.00
2018-10-05T04:19:52.331Z,100.00
2018-10-05T04:22:21.442Z,100.00
2018-10-05T04:24:50.502Z,100.00
2018-10-05T04:27:19.629Z,100.00
2018-10-05T04:29:48.669Z,100.00
2018-10-05T04:32:17.700Z,100.00
2018-10-05T04:34:46.737Z,100.00
2018-10-05T04:37:15.792Z,100.00
2018-10-05T04:39:44.885Z,100.00
2018-10-05T04:44:50.509Z,100.00
2018-10-05T04:47:19.620Z,100.00
2018-10-05T04:49:48.636Z,100.00
2018-10-05T04:52:17.678Z,100.00
2018-10-05T04:54:47.690Z,100.00
2018-10-05T04:57:16.741Z,100.00
2018-10-05T04:59:45.814Z,99.36
2018-10-05T05:02:16.856Z,100.00
2018-10-05T05:04:46.862Z,100.00
2018-10-05T05:09:51.652Z,100.00
2018-10-05T05:12:21.620Z,100.00
2018-10-05T05:14:50.695Z,100.00
2018-10-05T05:17:19.732Z,100.00
2018-10-05T05:22:25.026Z,100.00
2018-10-05T05:24:54.077Z,100.00
2018-10-05T05:27:23.133Z,100.00
2018-10-05T05:29:52.198Z,100.00
2018-10-05T05:32:21.378Z,100.00
2018-10-05T05:34:50.424Z,100.00
2018-10-05T05:37:19.487Z,100.00
2018-10-05T05:42:24.293Z,100.00
2018-10-05T05:44:54.365Z,100.00
2018-10-05T05:47:23.415Z,100.00
2018-10-05T05:52:28.153Z,100.00
2018-10-05T05:54:57.256Z,99.22
2018-10-05T05:57:40.367Z,98.76
2018-10-05T06:00:23.837Z,98.84
2018-10-05T06:03:05.675Z,98.24
2018-10-05T06:05:47.291Z,97.54
2018-10-05T06:10:53.715Z,98.69
2018-10-05T06:13:22.753Z,99.67
2018-10-05T06:15:51.906Z,99.25
2018-10-05T06:18:20.920Z,97.51
2018-10-05T06:23:26.742Z,97.78
2018-10-05T06:25:57.732Z,97.88
2018-10-05T06:28:26.772Z,95.84
2018-10-05T06:30:55.881Z,95.55
2018-10-05T06:33:29.533Z,95.25
2018-10-05T06:35:58.592Z,96.15
2018-10-05T06:38:27.686Z,96.43
2018-10-05T06:40:58.673Z,95.28
2018-10-05T06:43:27.729Z,97.01
2018-10-05T06:48:32.481Z,97.91
2018-10-05T06:53:37.473Z,96.83
2018-10-05T06:56:06.521Z,98.78
2018-10-05T06:58:35.569Z,99.81
2018-10-05T07:01:04.672Z,97.57
2018-10-05T07:03:34.688Z,96.13
2018-10-05T07:06:04.737Z,97.98
2018-10-05T07:08:36.009Z,93.99
2018-10-05T07:16:16.494Z,96.06
2018-10-05T07:18:46.431Z,94.30
2018-10-05T07:23:56.709Z,90.39
2018-10-05T07:26:26.689Z,90.16
2018-10-05T07:28:55.977Z,88.32
2018-10-05T07:34:01.147Z,95.37
2018-10-05T07:36:31.097Z,93.97
2018-10-05T07:39:04.044Z,92.97
2018-10-05T07:41:33.087Z,90.52
2018-10-05T07:44:02.140Z,87.87
2018-10-05T07:46:31.474Z,91.81
2018-10-05T07:49:00.513Z,91.00
2018-10-05T07:51:29.695Z,87.28
2018-10-05T07:53:58.900Z,82.97
2018-10-05T07:56:27.952Z,89.05
2018-10-05T07:58:57.970Z,85.34
2018-10-05T08:01:27.025Z,87.18
2018-10-05T08:03:56.107Z,91.20
2018-10-05T08:09:00.902Z,89.61
2018-10-05T08:11:29.943Z,87.09
2018-10-05T08:13:59.026Z,91.85
2018-10-05T08:16:28.122Z,90.60
2018-10-05T08:18:57.201Z,91.07
2018-10-05T08:21:26.261Z,90.78
2018-10-05T08:23:55.286Z,85.17
2018-10-05T08:26:24.451Z,88.57
2018-10-05T08:28:53.466Z,88.57
2018-10-05T08:31:26.013Z,86.88
2018-10-05T08:33:56.072Z,88.13
2018-10-05T08:36:25.097Z,85.30
2018-10-05T08:38:54.161Z,84.46
2018-10-05T08:41:23.206Z,85.08
2018-10-05T08:43:52.256Z,88.12
2018-10-05T08:49:02.032Z,77.98
2018-10-05T08:54:07.906Z,60.42
2018-10-05T08:56:39.972Z,61.84
2018-10-05T08:59:10.034Z,61.82
2018-10-05T09:01:41.094Z,57.90
2018-10-05T09:04:11.101Z,52.53
2018-10-05T09:06:40.186Z,52.66
2018-10-05T09:09:09.230Z,56.35
2018-10-05T09:14:14.109Z,54.53
2018-10-05T09:16:43.164Z,45.07
2018-10-05T09:19:13.173Z,47.04
2018-10-05T09:21:45.249Z,40.56
2018-10-05T09:24:14.369Z,44.72
2018-10-05T09:29:20.141Z,40.13
2018-10-05T09:31:51.143Z,40.80
2018-10-05T09:34:20.189Z,37.04
2018-10-05T09:36:49.255Z,39.85
2018-10-05T09:39:18.314Z,38.31
2018-10-05T09:41:47.463Z,33.98
2018-10-05T09:44:16.508Z,30.60
2018-10-05T09:46:45.564Z,32.79
2018-10-05T09:49:14.709Z,34.50
2018-10-05T09:51:45.728Z,30.48
2018-10-05T09:54:18.398Z,30.70
2018-10-05T09:56:47.452Z,29.95
2018-10-05T10:01:52.370Z,31.03
2018-10-05T10:04:21.418Z,31.89
2018-10-05T10:09:22.909Z,27.22
2018-10-05T10:11:52.002Z,29.47
2018-10-05T10:14:21.051Z,28.98
2018-10-05T10:16:51.047Z,32.35
2018-10-05T10:19:20.122Z,28.08
2018-10-05T10:21:49.212Z,28.70
2018-10-05T10:24:19.337Z,26.13
2018-10-05T10:26:48.404Z,27.45
2018-10-05T10:29:18.615Z,28.60
2018-10-05T10:31:47.571Z,27.11
2018-10-05T10:34:17.591Z,25.63
2018-10-05T10:36:46.700Z,23.48
2018-10-05T10:39:15.683Z,26.92
2018-10-05T10:41:45.697Z,26.79
2018-10-05T10:44:14.793Z,23.50
2018-10-05T10:46:43.854Z,22.99
2018-10-05T10:49:12.912Z,20.53
2018-10-05T10:51:42.909Z,23.24
2018-10-05T10:54:13.046Z,22.58
2018-10-05T10:56:42.014Z,23.60
2018-10-05T10:59:11.072Z,27.09
2018-10-05T11:01:41.062Z,25.23
2018-10-05T11:04:10.237Z,24.15
2018-10-05T11:06:39.253Z,25.03
2018-10-05T11:09:08.306Z,21.72
2018-10-05T11:11:41.647Z,22.66
2018-10-05T11:14:12.705Z,21.28
2018-10-05T11:16:41.765Z,22.58
2018-10-05T11:19:10.826Z,20.83
2018-10-05T11:21:41.925Z,21.65
2018-10-05T11:24:12.981Z,21.12
2018-10-05T11:26:43.057Z,20.41
2018-10-05T11:29:12.101Z,23.16
2018-10-05T11:31:41.162Z,21.39
2018-10-05T11:34:10.208Z,20.66
2018-10-05T11:36:39.260Z,18.73
2018-10-05T11:39:08.318Z,20.30
2018-10-05T11:41:37.437Z,20.43
2018-10-05T11:44:06.493Z,21.68
2018-10-05T11:46:35.542Z,19.71
2018-10-05T11:49:04.605Z,19.43
2018-10-05T11:51:33.658Z,20.78
2018-10-05T11:54:02.730Z,18.77
2018-10-05T11:56:43.239Z,18.51
2018-10-05T11:59:12.298Z,18.71
2018-10-05T12:01:42.269Z,19.31
2018-10-05T12:04:11.313Z,18.79
2018-10-05T12:06:40.368Z,19.01
2018-10-05T12:09:10.393Z,18.95
2018-10-05T12:11:39.533Z,18.85
2018-10-05T12:14:08.597Z,19.00
2018-10-05T12:16:37.649Z,19.39
2018-10-05T12:19:06.734Z,19.74
2018-10-05T12:21:35.786Z,17.95
2018-10-05T12:24:08.428Z,18.46
2018-10-05T12:29:15.364Z,19.86
2018-10-05T12:31:45.428Z,20.27
2018-10-05T12:34:14.568Z,20.52
2018-10-05T12:36:44.621Z,20.24
2018-10-05T12:39:15.667Z,23.27
2018-10-05T12:41:44.725Z,21.19
2018-10-05T12:44:13.789Z,19.88
2018-10-05T12:46:43.003Z,20.67
2018-10-05T12:49:12.075Z,20.88
2018-10-05T12:51:41.122Z,19.43
2018-10-05T12:54:10.210Z,18.21
2018-10-05T12:56:39.258Z,19.35
2018-10-05T12:59:08.317Z,23.19
2018-10-05T13:01:37.380Z,20.63
2018-10-05T13:04:06.442Z,19.66
2018-10-05T13:06:35.490Z,20.20
2018-10-05T13:09:04.540Z,21.97
2018-10-05T13:11:33.607Z,19.05
2018-10-05T13:16:40.374Z,19.84
2018-10-05T13:19:09.437Z,19.60
2018-10-05T13:21:38.524Z,21.41
2018-10-05T13:24:07.571Z,20.76
2018-10-05T13:31:48.184Z,19.51
2018-10-05T13:34:17.285Z,19.10
2018-10-05T13:36:48.277Z,22.15
2018-10-05T13:39:17.324Z,22.82
2018-10-05T13:41:46.428Z,21.94
2018-10-05T13:44:16.402Z,21.42
2018-10-05T13:46:45.511Z,20.85
2018-10-05T13:49:14.568Z,22.32
2018-10-05T13:54:24.049Z,24.61
2018-10-05T13:59:28.460Z,20.48
2018-10-05T14:01:57.532Z,21.12
2018-10-05T14:04:30.793Z,24.73
2018-10-05T14:07:01.866Z,23.50
2018-10-05T14:09:30.951Z,22.05
2018-10-05T14:12:02.004Z,24.27
2018-10-05T14:14:31.079Z,25.30
2018-10-05T14:17:00.137Z,23.53
2018-10-05T14:19:30.204Z,22.20
2018-10-05T14:21:59.260Z,22.55
2018-10-05T14:24:28.344Z,21.92
2018-10-05T14:26:58.384Z,26.90
2018-10-05T14:29:27.452Z,25.09
2018-10-05T14:31:56.592Z,22.26
2018-10-05T14:34:25.663Z,22.08
2018-10-05T14:39:30.519Z,24.78
2018-10-05T14:44:40.231Z,22.06
2018-10-05T14:47:09.288Z,25.75
2018-10-05T14:49:39.568Z,23.55
2018-10-05T14:52:08.581Z,24.91
2018-10-05T14:54:37.713Z,26.32
2018-10-05T14:57:06.814Z,28.29
2018-10-05T14:59:35.834Z,29.60
2018-10-05T15:02:04.910Z,32.60
2018-10-05T15:07:09.832Z,35.88
2018-10-05T15:09:38.803Z,34.99
2018-10-05T15:17:19.351Z,36.56
2018-10-05T15:19:48.406Z,37.15
2018-10-05T15:24:53.320Z,39.20
2018-10-05T15:27:23.357Z,39.26
2018-10-05T15:29:52.425Z,39.71
2018-10-05T15:32:21.486Z,39.43
2018-10-05T15:34:52.521Z,40.69
2018-10-05T15:37:21.584Z,41.09
2018-10-05T15:39:50.653Z,42.91
2018-10-05T15:42:19.701Z,41.84
2018-10-05T15:45:01.042Z,42.33
2018-10-05T15:47:42.969Z,45.57
2018-10-05T15:50:22.517Z,46.88
2018-10-05T15:55:42.198Z,44.89
2018-10-05T15:58:19.383Z,46.38
2018-10-05T16:00:57.793Z,48.02
2018-10-05T16:03:29.358Z,50.97
2018-10-05T16:06:04.484Z,47.96
2018-10-05T16:08:40.860Z,48.30
2018-10-05T16:11:19.733Z,50.02
2018-10-05T16:14:02.038Z,54.02
2018-10-05T16:16:40.408Z,57.56
2018-10-05T16:19:17.876Z,53.35
2018-10-05T16:21:55.961Z,53.89
2018-10-05T16:24:35.627Z,53.39
2018-10-05T16:27:10.954Z,58.06
2018-10-05T16:37:38.055Z,56.85
2018-10-05T16:40:12.922Z,65.27
2018-10-05T16:42:49.798Z,63.45
2018-10-05T16:45:26.930Z,59.69
2018-10-05T16:47:57.282Z,64.96
2018-10-05T16:50:26.345Z,65.16
2018-10-05T16:52:55.600Z,65.50
2018-10-05T16:55:24.621Z,63.87
2018-10-05T16:57:53.681Z,66.62
2018-10-05T17:00:22.763Z,72.21
2018-10-05T17:02:51.802Z,74.55
2018-10-05T17:05:21.806Z,69.06
2018-10-05T17:07:50.850Z,78.89
2018-10-05T17:10:19.916Z,76.67
2018-10-05T17:12:48.950Z,69.65
2018-10-05T17:15:18.011Z,73.93
2018-10-05T17:17:47.099Z,76.60
2018-10-05T17:20:20.819Z,79.00
2018-10-05T17:22:49.890Z,74.48
2018-10-05T17:25:18.940Z,80.52
2018-10-05T17:27:48.075Z,72.77
2018-10-05T17:30:17.117Z,82.37
2018-10-05T17:32:47.128Z,79.64
2018-10-05T17:35:16.176Z,84.26
2018-10-05T17:37:45.262Z,75.90
2018-10-05T17:40:14.272Z,83.61
2018-10-05T17:42:43.318Z,83.34
2018-10-05T17:45:12.417Z,86.37
2018-10-05T17:47:41.526Z,89.40
2018-10-05T17:50:10.574Z,90.98
2018-10-05T17:52:39.623Z,93.24
2018-10-05T17:55:08.700Z,88.88
2018-10-05T17:57:37.735Z,87.08
2018-10-05T18:00:06.784Z,87.69
2018-10-05T18:02:35.825Z,89.50
2018-10-05T18:05:10.650Z,88.91
2018-10-05T18:07:39.698Z,84.99
2018-10-05T18:10:10.729Z,86.27
2018-10-05T18:12:43.299Z,82.57
2018-10-05T18:15:12.332Z,87.84
2018-10-05T18:20:17.189Z,87.87
2018-10-05T18:22:46.295Z,92.79
2018-10-05T18:25:15.356Z,91.56
2018-10-05T18:27:44.409Z,97.80
2018-10-05T18:30:13.481Z,97.20
2018-10-05T18:37:54.081Z,90.19
2018-10-05T18:40:23.334Z,95.96
2018-10-05T18:42:52.426Z,88.18
2018-10-05T18:45:21.528Z,86.26
2018-10-05T18:47:50.702Z,87.95
2018-10-05T18:50:19.751Z,93.18
2018-10-05T18:55:24.548Z,92.34
2018-10-05T18:57:53.620Z,88.64
2018-10-05T19:00:22.749Z,92.44
2018-10-05T19:02:56.576Z,94.19
2018-10-05T19:05:26.700Z,95.11
2018-10-05T19:07:57.657Z,95.35
2018-10-05T19:10:26.744Z,89.60
2018-10-05T19:12:55.817Z,88.33
2018-10-05T19:15:26.335Z,93.23
2018-10-05T19:17:56.492Z,95.01
2018-10-05T19:20:26.173Z,99.13
2018-10-05T19:22:58.819Z,100.00
2018-10-05T19:25:28.020Z,100.00
2018-10-05T19:27:57.083Z,100.00
2018-10-05T19:30:26.133Z,99.16
2018-10-05T19:35:30.897Z,91.66
2018-10-05T19:38:00.410Z,92.31
2018-10-05T19:40:29.517Z,98.89
2018-10-05T19:42:58.753Z,100.00
2018-10-05T19:45:27.861Z,96.00
2018-10-05T19:47:58.130Z,96.00
2018-10-05T19:50:27.246Z,95.12
2018-10-05T19:52:56.398Z,97.90
2018-10-05T19:55:26.469Z,98.55
2018-10-05T19:57:55.553Z,97.77
2018-10-05T20:00:24.661Z,94.64
2018-10-05T20:02:53.829Z,97.88
2018-10-05T20:05:26.302Z,99.79
2018-10-05T20:08:02.953Z,98.55
2018-10-05T20:10:33.860Z,100.00
2018-10-05T20:13:04.314Z,100.00
2018-10-05T20:18:10.375Z,90.69
2018-10-05T20:20:41.102Z,93.05
2018-10-05T20:23:14.287Z,96.04
2018-10-05T20:25:43.512Z,98.50
2018-10-05T20:30:48.847Z,100.00
2018-10-05T20:33:18.844Z,100.00
2018-10-05T20:35:48.882Z,100.00
2018-10-05T20:40:57.100Z,100.00
2018-10-05T20:43:27.479Z,100.00
2018-10-05T20:45:56.993Z,100.00
2018-10-05T20:48:27.017Z,100.00
2018-10-05T20:51:01.877Z,100.00
2018-10-05T20:53:31.233Z,100.00
2018-10-05T20:56:01.275Z,99.86
2018-10-05T20:58:30.309Z,99.03
2018-10-05T21:01:00.887Z,98.46
2018-10-05T21:03:30.919Z,100.00
2018-10-05T21:06:00.209Z,99.57
2018-10-05T21:08:31.066Z,92.96
2018-10-05T21:16:13.929Z,93.33
2018-10-05T21:18:43.632Z,99.71
2018-10-05T21:21:12.656Z,100.00
2018-10-05T21:23:42.363Z,100.00
2018-10-05T21:26:11.503Z,100.00
2018-10-05T21:28:44.333Z,100.00
2018-10-05T21:31:15.090Z,100.00
2018-10-05T21:33:44.145Z,100.00
2018-10-05T21:36:13.740Z,100.00
2018-10-05T21:41:28.632Z,100.00
2018-10-05T21:43:59.635Z,100.00
2018-10-05T21:46:29.604Z,100.00
2018-10-05T21:49:04.265Z,100.00
2018-10-05T21:51:33.497Z,100.00
2018-10-05T21:54:04.115Z,100.00
2018-10-05T21:56:36.496Z,100.00
2018-10-05T21:59:06.993Z,100.00
2018-10-05T22:01:37.607Z,100.00
2018-10-05T22:04:08.455Z,100.00
2018-10-05T22:06:37.615Z,100.00
2018-10-05T22:09:12.401Z,100.00
2018-10-05T22:14:17.657Z,100.00
2018-10-05T22:16:47.983Z,100.00
2018-10-05T22:19:17.029Z,100.00
2018-10-05T22:21:46.102Z,100.00
2018-10-05T22:24:24.798Z,100.00
2018-10-05T22:29:33.779Z,98.13
2018-10-05T22:32:03.635Z,99.13
2018-10-05T22:34:34.898Z,99.19
2018-10-05T22:37:05.173Z,99.80
2018-10-05T22:39:35.360Z,100.00
2018-10-05T22:42:06.715Z,100.00
2018-10-05T22:44:36.941Z,99.68
2018-10-05T22:47:07.532Z,100.00
2018-10-05T22:49:37.680Z,100.00
2018-10-05T22:52:09.131Z,100.00
2018-10-05T22:54:40.915Z,100.00
2018-10-05T22:57:11.117Z,100.00
2018-10-05T22:59:42.198Z,100.00
2018-10-05T23:02:11.237Z,100.00
2018-10-05T23:10:04.620Z,100.00
2018-10-05T23:12:34.161Z,100.00
2018-10-05T23:15:03.221Z,100.00
2018-10-05T23:17:32.248Z,100.00
2018-10-05T23:20:01.293Z,100.00
2018-10-05T23:22:30.342Z,100.00
2018-10-05T23:27:35.095Z,100.00
2018-10-05T23:30:04.171Z,100.00
2018-10-05T23:32:35.190Z,100.00
2018-10-05T23:35:04.268Z,100.00
2018-10-05T23:37:42.127Z,100.00
2018-10-05T23:40:15.139Z,100.00
2018-10-05T23:42:45.690Z,100.00
2018-10-05T23:45:14.962Z,100.00
2018-10-05T23:47:45.945Z,100.00
2018-10-05T23:50:23.904Z,100.00
2018-10-05T23:52:57.753Z,100.00
2018-10-05T23:55:35.948Z,100.00
2018-10-05T23:58:11.754Z,100.00
